createdAt,value
2019-04-26T00:00:48.283Z,13.10
2019-04-26T00:03:20.125Z,11.77
2019-04-26T00:05:50.161Z,13.83
2019-04-26T00:08:20.104Z,20.60
2019-04-26T00:11:03.871Z,15.40
2019-04-26T00:13:52.004Z,14.00
2019-04-26T00:16:29.304Z,12.37
2019-04-26T00:18:59.468Z,13.20
2019-04-26T00:21:29.618Z,13.73
2019-04-26T00:24:00.396Z,11.33
2019-04-26T00:26:31.284Z,17.37
2019-04-26T00:29:02.340Z,17.57
2019-04-26T00:31:32.368Z,14.83
2019-04-26T00:34:03.423Z,13.67
2019-04-26T00:36:33.407Z,13.03
2019-04-26T00:39:04.748Z,15.63
2019-04-26T00:41:35.708Z,14.87
2019-04-26T00:44:05.712Z,17.60
2019-04-26T00:46:37.571Z,17.70
2019-04-26T00:49:10.272Z,19.03
2019-04-26T00:51:41.025Z,17.87
2019-04-26T00:54:11.624Z,19.90
2019-04-26T00:56:42.091Z,19.57
2019-04-26T00:59:12.341Z,31.77
2019-04-26T01:01:44.899Z,28.57
2019-04-26T01:04:15.904Z,17.33
2019-04-26T01:06:49.149Z,14.20
2019-04-26T01:09:19.495Z,22.83
2019-04-26T01:11:49.475Z,23.10
2019-04-26T01:14:19.955Z,18.03
2019-04-26T01:16:50.016Z,20.00
2019-04-26T01:19:22.453Z,17.43
2019-04-26T01:21:58.326Z,19.07
2019-04-26T01:24:31.389Z,15.43
2019-04-26T01:27:04.686Z,18.07
2019-04-26T01:29:36.785Z,16.47
2019-04-26T01:32:09.867Z,10.50
2019-04-26T01:34:42.054Z,18.57
2019-04-26T01:37:12.284Z,10.20
2019-04-26T01:39:48.029Z,13.73
2019-04-26T01:42:22.432Z,15.23
2019-04-26T01:45:01.262Z,14.97
2019-04-26T01:47:32.708Z,15.40
2019-04-26T01:50:02.915Z,18.50
2019-04-26T01:52:32.988Z,12.30
2019-04-26T01:55:03.819Z,16.93
2019-04-26T01:57:34.216Z,12.40
2019-04-26T02:00:10.312Z,18.57
2019-04-26T02:02:42.066Z,18.30
2019-04-26T02:05:13.999Z,20.17
2019-04-26T02:07:44.032Z,16.83
2019-04-26T02:10:17.131Z,20.73
2019-04-26T02:12:48.921Z,15.97
2019-04-26T02:15:23.945Z,15.73
2019-04-26T02:17:56.841Z,21.13
2019-04-26T02:20:52.723Z,23.90
2019-04-26T02:23:34.361Z,20.60
2019-04-26T02:26:22.412Z,15.07
2019-04-26T02:28:52.358Z,16.10
2019-04-26T02:31:22.354Z,18.53
2019-04-26T02:33:52.842Z,17.47
2019-04-26T02:36:23.157Z,20.03
2019-04-26T02:38:55.847Z,20.87
2019-04-26T02:41:28.106Z,19.00
2019-04-26T02:44:01.239Z,12.83
2019-04-26T02:46:37.713Z,18.93
2019-04-26T02:49:22.647Z,20.23
2019-04-26T02:51:55.699Z,14.57
2019-04-26T02:54:46.945Z,14.43
2019-04-26T02:57:26.013Z,16.57
2019-04-26T02:59:59.116Z,20.73
2019-04-26T03:02:32.268Z,16.63
2019-04-26T03:05:03.871Z,24.83
2019-04-26T03:07:39.855Z,16.50
2019-04-26T03:10:10.442Z,23.47
2019-04-26T03:12:44.240Z,21.60
2019-04-26T03:15:24.711Z,16.93
2019-04-26T03:18:21.316Z,18.97
2019-04-26T03:20:54.914Z,20.67
2019-04-26T03:23:41.566Z,15.37
2019-04-26T03:26:20.732Z,23.37
2019-04-26T03:28:56.790Z,12.77
2019-04-26T03:31:54.467Z,14.93
2019-04-26T03:34:28.244Z,20.73
2019-04-26T03:37:26.732Z,19.27
2019-04-26T03:40:12.707Z,19.93
2019-04-26T03:43:02.251Z,17.80
2019-04-26T03:45:42.577Z,16.67
2019-04-26T03:48:48.928Z,23.60
2019-04-26T03:51:39.691Z,19.83
2019-04-26T03:54:19.210Z,19.70
2019-04-26T03:56:53.851Z,19.17
2019-04-26T03:59:31.244Z,21.57
2019-04-26T04:02:21.445Z,18.77
2019-04-26T04:05:01.939Z,22.90
2019-04-26T04:07:39.847Z,21.47
2019-04-26T04:10:15.938Z,15.17
2019-04-26T04:12:58.073Z,25.27
2019-04-26T04:15:34.293Z,16.57
2019-04-26T04:18:10.040Z,18.80
2019-04-26T04:21:18.648Z,23.23
2019-04-26T04:23:51.727Z,24.23
2019-04-26T04:26:27.275Z,20.07
2019-04-26T04:29:18.256Z,22.97
2019-04-26T04:31:56.990Z,19.83
2019-04-26T04:34:30.129Z,25.67
2019-04-26T04:37:03.497Z,26.43
2019-04-26T04:39:49.878Z,19.97
2019-04-26T04:42:43.440Z,21.23
2019-04-26T04:45:36.091Z,15.80
2019-04-26T04:48:37.120Z,20.57
2019-04-26T04:51:28.264Z,19.10
2019-04-26T04:54:18.116Z,30.37
2019-04-26T04:56:57.371Z,17.60
2019-04-26T04:59:32.923Z,19.10
2019-04-26T05:02:23.545Z,16.43
2019-04-26T05:05:14.851Z,24.17
2019-04-26T05:08:07.112Z,13.20
2019-04-26T05:10:46.179Z,17.33
2019-04-26T05:13:22.109Z,21.47
2019-04-26T05:16:17.454Z,24.83
2019-04-26T05:19:29.216Z,24.10
2019-04-26T05:22:08.046Z,29.43
2019-04-26T05:24:41.133Z,23.70
2019-04-26T05:27:34.819Z,26.33
2019-04-26T05:30:15.459Z,21.00
2019-04-26T05:32:54.726Z,15.30
2019-04-26T05:35:29.513Z,21.93
2019-04-26T05:38:20.617Z,24.00
2019-04-26T05:41:18.591Z,25.17
2019-04-26T05:44:14.150Z,19.93
2019-04-26T05:47:03.834Z,17.90
2019-04-26T05:50:16.006Z,20.13
2019-04-26T05:53:13.337Z,20.17
2019-04-26T05:56:32.277Z,16.93
2019-04-26T05:59:36.782Z,21.63
2019-04-26T06:02:35.679Z,19.10
2019-04-26T06:05:28.386Z,15.10
2019-04-26T06:08:30.625Z,16.33
2019-04-26T06:10:58.435Z,19.40
2019-04-26T06:13:45.090Z,18.00
2019-04-26T06:16:34.302Z,18.53
2019-04-26T06:19:17.894Z,20.50
2019-04-26T06:22:02.470Z,13.90
2019-04-26T06:24:35.492Z,21.03
2019-04-26T06:27:34.531Z,14.97
2019-04-26T06:30:10.158Z,24.20
2019-04-26T06:33:00.271Z,14.50
2019-04-26T06:35:25.591Z,14.93
2019-04-26T06:38:08.927Z,17.93
2019-04-26T06:40:54.597Z,22.93
2019-04-26T06:43:30.278Z,16.03
2019-04-26T06:46:22.881Z,24.27
2019-04-26T06:49:24.097Z,14.60
2019-04-26T06:52:00.422Z,17.63
2019-04-26T06:54:48.810Z,19.53
2019-04-26T06:57:55.185Z,14.80
2019-04-26T07:00:29.520Z,19.33
2019-04-26T07:03:08.486Z,20.73
2019-04-26T07:05:47.290Z,20.07
2019-04-26T07:08:22.862Z,13.93
2019-04-26T07:11:19.003Z,13.57
2019-04-26T07:14:10.004Z,13.17
2019-04-26T07:16:43.156Z,14.57
2019-04-26T07:19:40.713Z,11.70
2019-04-26T07:22:21.130Z,13.10
2019-04-26T07:25:18.511Z,13.03
2019-04-26T07:28:03.837Z,13.03
2019-04-26T07:30:35.083Z,14.40
2019-04-26T07:33:26.549Z,12.40
2019-04-26T07:36:20.720Z,16.67
2019-04-26T07:39:19.408Z,19.90
2019-04-26T07:42:25.233Z,15.97
2019-04-26T07:45:17.822Z,16.33
2019-04-26T07:48:17.366Z,13.30
2019-04-26T07:51:06.399Z,11.37
2019-04-26T07:54:00.213Z,9.73
2019-04-26T07:56:50.718Z,11.67
2019-04-26T07:59:47.748Z,12.03
2019-04-26T08:02:39.536Z,9.87
2019-04-26T08:05:38.110Z,9.00
2019-04-26T08:08:10.814Z,8.60
2019-04-26T08:10:44.482Z,11.57
2019-04-26T08:13:17.020Z,14.17
2019-04-26T08:16:04.880Z,10.67
2019-04-26T08:18:39.862Z,9.70
2019-04-26T08:21:20.483Z,8.90
2019-04-26T08:24:01.016Z,10.23
2019-04-26T08:26:33.798Z,15.50
2019-04-26T08:29:07.030Z,11.87
2019-04-26T08:31:40.065Z,9.73
2019-04-26T08:34:14.506Z,8.83
2019-04-26T08:36:50.702Z,9.30
2019-04-26T08:39:32.370Z,7.20
2019-04-26T08:42:01.663Z,11.77
2019-04-26T08:44:36.953Z,7.07
2019-04-26T08:47:16.414Z,12.33
2019-04-26T08:49:52.559Z,8.67
2019-04-26T08:52:25.896Z,6.10
2019-04-26T08:54:58.346Z,9.50
2019-04-26T08:57:31.375Z,10.50
2019-04-26T09:00:04.471Z,9.47
2019-04-26T09:02:42.850Z,4.67
2019-04-26T09:05:23.193Z,9.27
2019-04-26T09:07:57.594Z,13.43
2019-04-26T09:10:31.378Z,12.50
2019-04-26T09:13:03.925Z,13.20
2019-04-26T09:15:57.060Z,9.60
2019-04-26T09:18:27.901Z,10.33
2019-04-26T09:20:57.873Z,8.93
2019-04-26T09:23:39.878Z,16.03
2019-04-26T09:26:08.544Z,10.83
2019-04-26T09:28:56.509Z,8.87
2019-04-26T09:31:28.565Z,12.47
2019-04-26T09:34:06.388Z,6.13
2019-04-26T09:36:34.975Z,5.53
2019-04-26T09:39:09.846Z,7.47
2019-04-26T09:41:40.136Z,8.77
2019-04-26T09:44:27.811Z,12.40
2019-04-26T09:47:15.705Z,9.57
2019-04-26T09:50:03.400Z,8.00
2019-04-26T09:52:50.179Z,7.37
2019-04-26T09:55:20.143Z,14.37
2019-04-26T09:57:53.525Z,5.07
2019-04-26T10:00:23.868Z,13.00
2019-04-26T10:02:53.886Z,7.30
2019-04-26T10:05:23.904Z,5.87
2019-04-26T10:07:53.809Z,9.37
2019-04-26T10:10:25.407Z,8.83
2019-04-26T10:12:59.680Z,5.47
2019-04-26T10:15:49.557Z,7.57
2019-04-26T10:18:24.360Z,6.13
2019-04-26T10:20:52.730Z,7.00
2019-04-26T10:23:22.676Z,6.13
2019-04-26T10:25:53.642Z,9.10
2019-04-26T10:28:24.858Z,3.80
2019-04-26T10:30:54.899Z,9.33
2019-04-26T10:33:24.840Z,8.00
2019-04-26T10:35:56.636Z,12.53
2019-04-26T10:38:26.387Z,12.00
2019-04-26T10:40:56.363Z,7.20
2019-04-26T10:43:29.261Z,10.70
2019-04-26T10:45:57.980Z,5.20
2019-04-26T10:48:27.923Z,7.03
2019-04-26T10:50:57.963Z,11.20
2019-04-26T10:53:35.866Z,11.37
2019-04-26T10:56:08.015Z,9.33
2019-04-26T10:58:39.666Z,6.93
2019-04-26T11:01:11.553Z,9.17
2019-04-26T11:03:41.503Z,7.20
2019-04-26T11:06:11.471Z,7.43
2019-04-26T11:08:41.424Z,12.97
2019-04-26T11:11:11.768Z,9.63
2019-04-26T11:13:41.721Z,7.57
2019-04-26T11:16:12.701Z,10.27
2019-04-26T11:18:42.819Z,9.40
2019-04-26T11:21:16.409Z,10.90
2019-04-26T11:23:45.465Z,12.83
2019-04-26T11:26:16.672Z,9.70
2019-04-26T11:28:46.735Z,7.43
2019-04-26T11:31:16.716Z,6.40
2019-04-26T11:33:49.591Z,9.60
2019-04-26T11:36:18.248Z,13.37
2019-04-26T11:38:48.203Z,14.53
2019-04-26T11:41:18.151Z,8.33
2019-04-26T11:43:49.050Z,7.43
2019-04-26T11:46:21.807Z,12.93
2019-04-26T11:48:58.894Z,12.23
2019-04-26T11:51:23.619Z,11.53
2019-04-26T11:53:54.438Z,15.80
2019-04-26T11:56:24.397Z,8.90
2019-04-26T11:58:56.813Z,12.07
2019-04-26T12:01:27.759Z,12.10
2019-04-26T12:04:11.773Z,8.80
2019-04-26T12:07:01.353Z,8.17
2019-04-26T12:09:33.006Z,14.70
2019-04-26T12:12:04.929Z,8.27
2019-04-26T12:14:35.562Z,10.30
2019-04-26T12:17:05.516Z,9.10
2019-04-26T12:19:35.451Z,7.57
2019-04-26T12:22:08.205Z,10.57
2019-04-26T12:24:37.213Z,9.10
2019-04-26T12:27:10.041Z,12.63
2019-04-26T12:29:38.931Z,10.90
2019-04-26T12:32:08.878Z,12.77
2019-04-26T12:34:38.830Z,14.20
2019-04-26T12:37:12.506Z,7.87
2019-04-26T12:39:40.415Z,8.97
2019-04-26T12:42:12.267Z,9.33
2019-04-26T12:44:43.796Z,10.33
2019-04-26T12:47:16.398Z,9.40
2019-04-26T12:49:46.353Z,12.93
2019-04-26T12:52:17.517Z,9.17
2019-04-26T12:54:47.946Z,10.10
2019-04-26T12:57:17.923Z,12.63
2019-04-26T12:59:47.960Z,12.03
2019-04-26T13:02:20.779Z,9.20
2019-04-26T13:04:49.530Z,7.83
2019-04-26T13:07:23.737Z,6.37
2019-04-26T13:09:57.166Z,8.37
2019-04-26T13:12:30.821Z,8.07
2019-04-26T13:15:22.274Z,7.43
2019-04-26T13:17:53.691Z,5.85
2019-04-26T13:20:24.404Z,10.27
2019-04-26T13:22:55.927Z,9.75
2019-04-26T13:25:26.714Z,10.80
2019-04-26T13:27:57.544Z,9.25
2019-04-26T13:30:32.997Z,14.28
2019-04-26T13:32:59.062Z,9.50
2019-04-26T13:35:29.014Z,12.30
2019-04-26T13:37:58.966Z,6.80
2019-04-26T13:40:29.509Z,9.58
2019-04-26T13:42:59.531Z,8.38
2019-04-26T13:45:31.187Z,15.08
2019-04-26T13:48:19.278Z,8.43
2019-04-26T13:51:01.289Z,7.17
2019-04-26T13:53:31.555Z,7.15
2019-04-26T13:56:01.918Z,7.03
2019-04-26T13:58:32.701Z,6.62
2019-04-26T14:01:04.087Z,7.87
2019-04-26T14:03:34.035Z,5.40
2019-04-26T14:06:03.986Z,4.33
2019-04-26T14:08:33.941Z,6.55
2019-04-26T14:11:04.453Z,6.40
2019-04-26T14:13:34.409Z,8.00
2019-04-26T14:16:04.704Z,11.25
2019-04-26T14:18:38.861Z,8.03
2019-04-26T14:21:06.218Z,6.37
2019-04-26T14:23:38.872Z,7.58
2019-04-26T14:26:15.934Z,10.48
2019-04-26T14:28:45.890Z,11.28
2019-04-26T14:31:16.340Z,8.08
2019-04-26T14:33:47.402Z,6.53
2019-04-26T14:36:18.398Z,9.43
2019-04-26T14:38:48.608Z,4.40
2019-04-26T14:41:22.492Z,6.10
2019-04-26T14:43:52.491Z,6.12
2019-04-26T14:46:23.023Z,5.80
2019-04-26T14:49:01.384Z,9.73
2019-04-26T14:51:24.744Z,9.48
2019-04-26T14:53:54.691Z,5.85
2019-04-26T14:56:29.140Z,9.60
2019-04-26T14:58:56.223Z,5.47
2019-04-26T15:01:44.326Z,7.65
2019-04-26T15:04:33.764Z,6.90
2019-04-26T15:07:05.643Z,12.07
2019-04-26T15:09:36.637Z,8.10
2019-04-26T15:12:07.829Z,7.72
2019-04-26T15:14:38.492Z,7.97
2019-04-26T15:17:08.583Z,5.92
2019-04-26T15:19:40.289Z,9.33
2019-04-26T15:22:12.089Z,11.43
2019-04-26T15:24:42.195Z,7.55
2019-04-26T15:27:12.227Z,14.07
2019-04-26T15:29:42.408Z,9.53
2019-04-26T15:32:15.387Z,5.45
2019-04-26T15:34:45.330Z,7.10
2019-04-26T15:37:16.211Z,10.23
2019-04-26T15:39:56.844Z,8.80
2019-04-26T15:42:29.271Z,9.07
2019-04-26T15:45:06.395Z,8.57
2019-04-26T15:47:50.212Z,7.03
2019-04-26T15:50:24.756Z,7.13
2019-04-26T15:52:54.698Z,5.50
2019-04-26T15:55:24.710Z,6.67
2019-04-26T15:57:54.659Z,5.97
2019-04-26T16:00:28.216Z,10.87
2019-04-26T16:02:58.629Z,13.20
2019-04-26T16:05:29.829Z,6.53
2019-04-26T16:08:01.859Z,5.30
2019-04-26T16:10:37.090Z,13.17
2019-04-26T16:13:16.097Z,4.60
2019-04-26T16:15:34.686Z,10.20
2019-04-26T16:18:04.806Z,9.67
2019-04-26T16:20:38.033Z,8.77
2019-04-26T16:23:07.409Z,12.43
2019-04-26T16:25:39.321Z,12.37
2019-04-26T16:28:17.011Z,8.17
2019-04-26T16:30:53.090Z,5.67
2019-04-26T16:33:28.529Z,8.93
2019-04-26T16:35:57.393Z,10.33
2019-04-26T16:38:29.582Z,8.17
2019-04-26T16:40:59.537Z,9.90
2019-04-26T16:43:37.647Z,10.27
2019-04-26T16:46:02.296Z,8.33
2019-04-26T16:48:32.547Z,10.37
2019-04-26T16:51:08.554Z,13.20
2019-04-26T16:56:06.651Z,11.70
2019-04-26T16:58:42.265Z,14.80
2019-04-26T17:00:46.555Z,13.47
2019-04-26T17:01:10.261Z,13.30
2019-04-26T17:03:45.241Z,24.43
2019-04-26T17:06:14.390Z,11.53
2019-04-26T17:08:50.063Z,15.47
2019-04-26T17:11:15.566Z,20.60
2019-04-26T17:13:50.588Z,14.27
2019-04-26T17:16:17.088Z,12.83
2019-04-26T17:18:47.043Z,13.20
2019-04-26T17:21:22.335Z,12.23
2019-04-26T17:24:00.861Z,19.70
2019-04-26T17:26:36.462Z,18.23
2019-04-26T17:29:05.822Z,17.77
2019-04-26T17:31:35.779Z,14.20
2019-04-26T17:34:05.803Z,17.80
2019-04-26T17:36:35.782Z,14.77
2019-04-26T17:39:10.926Z,20.07
2019-04-26T17:41:45.112Z,16.97
2019-04-26T17:44:13.304Z,16.97
2019-04-26T17:46:43.487Z,14.27
2019-04-26T17:49:13.463Z,16.33
2019-04-26T17:51:44.444Z,20.70
2019-04-26T17:54:41.686Z,20.77
2019-04-26T17:56:46.151Z,16.23
2019-04-26T17:59:32.553Z,19.63
2019-04-26T18:01:55.490Z,16.00
2019-04-26T18:04:31.440Z,21.53
2019-04-26T18:06:57.889Z,14.53
2019-04-26T18:09:40.343Z,24.70
2019-04-26T18:11:55.309Z,19.87
2019-04-26T18:14:30.316Z,16.17
2019-04-26T18:17:01.501Z,25.33
2019-04-26T18:19:36.086Z,25.63
2019-04-26T18:22:07.836Z,21.13
2019-04-26T18:24:37.865Z,25.53
2019-04-26T18:27:07.942Z,22.67
2019-04-26T18:29:37.922Z,26.27
2019-04-26T18:32:07.890Z,28.50
2019-04-26T18:34:40.632Z,27.53
2019-04-26T18:37:09.911Z,31.57
2019-04-26T18:39:39.924Z,34.37
2019-04-26T18:42:09.878Z,32.13
2019-04-26T18:44:47.355Z,30.97
2019-04-26T18:47:20.593Z,36.30
2019-04-26T18:49:47.373Z,37.00
2019-04-26T18:52:19.396Z,33.63
2019-04-26T18:54:53.092Z,37.03
2019-04-26T18:57:23.833Z,38.20
2019-04-26T18:59:53.936Z,34.80
2019-04-26T19:02:25.358Z,39.37
2019-04-26T19:04:55.335Z,35.67
2019-04-26T19:07:32.106Z,38.30
2019-04-26T19:10:01.974Z,37.93
2019-04-26T19:12:28.677Z,41.43
2019-04-26T19:15:16.890Z,38.67
2019-04-26T19:17:54.776Z,34.97
2019-04-26T19:20:26.462Z,40.67
2019-04-26T19:22:58.304Z,34.67
2019-04-26T19:25:29.913Z,35.37
2019-04-26T19:28:04.459Z,43.93
2019-04-26T19:30:31.784Z,41.10
2019-04-26T19:33:02.139Z,37.87
2019-04-26T19:35:33.698Z,27.40
2019-04-26T19:38:07.441Z,26.40
2019-04-26T19:40:35.553Z,21.80
2019-04-26T19:43:09.087Z,24.33
2019-04-26T19:45:46.130Z,21.23
2019-04-26T19:48:31.370Z,22.63
2019-04-26T19:51:11.745Z,24.23
2019-04-26T19:53:51.674Z,20.57
2019-04-26T19:56:27.855Z,21.37
2019-04-26T19:58:58.730Z,18.50
2019-04-26T20:01:28.986Z,20.33
2019-04-26T20:03:58.950Z,28.03
2019-04-26T20:06:28.916Z,34.37
2019-04-26T20:08:59.848Z,26.00
2019-04-26T20:11:31.590Z,35.40
2019-04-26T20:14:03.416Z,31.90
2019-04-26T20:16:36.387Z,28.50
2019-04-26T20:19:08.085Z,35.53
2019-04-26T20:21:37.827Z,40.70
2019-04-26T20:24:07.778Z,37.10
2019-04-26T20:26:41.916Z,42.33
2019-04-26T20:29:11.455Z,35.77
2019-04-26T20:31:47.606Z,39.50
2019-04-26T20:34:18.404Z,42.90
2019-04-26T20:36:47.923Z,43.83
2019-04-26T20:39:20.866Z,39.20
2019-04-26T20:42:01.248Z,40.37
2019-04-26T20:44:28.365Z,39.77
2019-04-26T20:46:54.735Z,36.27
2019-04-26T20:49:24.672Z,34.83
2019-04-26T20:51:54.718Z,32.90
2019-04-26T20:54:24.678Z,32.93
2019-04-26T20:56:55.622Z,32.93
2019-04-26T20:59:26.990Z,35.90
2019-04-26T21:02:05.356Z,39.87
2019-04-26T21:04:38.125Z,37.07
2019-04-26T21:07:02.272Z,35.30
2019-04-26T21:09:36.164Z,35.10
2019-04-26T21:12:07.936Z,29.87
2019-04-26T21:14:37.749Z,27.67
2019-04-26T21:17:07.552Z,25.33
2019-04-26T21:19:37.507Z,25.53
2019-04-26T21:22:07.735Z,32.63
2019-04-26T21:24:39.334Z,28.87
2019-04-26T21:27:13.975Z,29.67
2019-04-26T21:29:52.506Z,28.73
2019-04-26T21:32:26.201Z,25.43
2019-04-26T21:34:57.413Z,29.27
2019-04-26T21:37:37.971Z,27.47
2019-04-26T21:40:16.153Z,29.73
2019-04-26T21:42:45.231Z,26.80
2019-04-26T21:45:16.590Z,28.27
2019-04-26T21:47:46.642Z,26.97
2019-04-26T21:50:16.592Z,30.23
2019-04-26T21:52:46.597Z,31.50
2019-04-26T21:55:16.780Z,28.00
2019-04-26T21:57:46.838Z,25.47
2019-04-26T22:00:18.967Z,27.47
2019-04-26T22:02:50.549Z,27.37
2019-04-26T22:05:20.506Z,20.43
2019-04-26T22:07:50.514Z,18.83
2019-04-26T22:10:23.485Z,16.47
2019-04-26T22:12:53.937Z,19.27
2019-04-26T22:15:29.405Z,19.97
2019-04-26T22:17:58.878Z,21.87
2019-04-26T22:20:30.474Z,17.53
2019-04-26T22:23:11.648Z,17.30
2019-04-26T22:25:42.319Z,17.23
2019-04-26T22:28:13.076Z,17.57
2019-04-26T22:30:43.175Z,16.43
2019-04-26T22:33:13.263Z,18.87
2019-04-26T22:35:43.276Z,17.80
2019-04-26T22:38:17.507Z,17.00
2019-04-26T22:40:48.591Z,16.13
2019-04-26T22:43:22.937Z,20.30
2019-04-26T22:45:58.435Z,17.33
2019-04-26T22:48:33.929Z,18.13
2019-04-26T22:51:04.740Z,18.57
2019-04-26T22:53:34.891Z,20.67
2019-04-26T22:56:05.075Z,16.00
2019-04-26T22:58:35.139Z,14.13
2019-04-26T23:01:06.258Z,15.50
2019-04-26T23:03:40.500Z,13.13
2019-04-26T23:06:11.692Z,17.80
2019-04-26T23:08:39.934Z,17.17
2019-04-26T23:11:10.741Z,14.50
2019-04-26T23:13:48.226Z,15.97
2019-04-26T23:16:19.819Z,14.80
2019-04-26T23:19:00.230Z,15.60
2019-04-26T23:21:33.952Z,14.87
2019-04-26T23:24:03.875Z,15.60
2019-04-26T23:26:37.536Z,13.23
2019-04-26T23:29:08.614Z,18.37
2019-04-26T23:31:37.538Z,16.10
2019-04-26T23:34:07.564Z,15.97
2019-04-26T23:36:37.519Z,17.17
2019-04-26T23:39:11.819Z,16.73
2019-04-26T23:41:41.606Z,16.87
2019-04-26T23:44:13.052Z,17.80
2019-04-26T23:46:43.955Z,16.50
2019-04-26T23:49:14.492Z,13.73
2019-04-26T23:51:45.875Z,18.70
2019-04-26T23:54:16.096Z,16.33
2019-04-26T23:56:46.067Z,16.53
2019-04-26T23:59:20.722Z,16.10
